Time;durP1;ratioP1;P1;durP2;ratioP2;P2;SDS_P1;SDS_P2;PMS_P1;PMS_P2;Temp;Humidity;BMP_temperature;BMP_pressure;BME280_temperature;BME280_humidity;BME280_pressure;Samples;Min_cycle;Max_cycle;Signal;HPM_P1;HPM_P2
2023/05/30 03:50:19;;;;;;;14.00;13.13;;;14.50;99.90;;;;;;5843553;22;20488;-72
2023/05/30 03:52:46;;;;;;;13.50;12.70;;;14.50;99.90;;;;;;5028916;28;20515;-74
2023/05/30 03:55:13;;;;;;;14.63;13.57;;;14.60;99.90;;;;;;5029049;28;20453;-74
2023/05/30 03:57:40;;;;;;;15.57;14.40;;;14.50;99.90;;;;;;5028884;28;20457;-75
2023/05/30 04:00:08;;;;;;;14.90;13.67;;;14.90;99.90;;;;;;5028821;28;21049;-75
2023/05/30 04:02:35;;;;;;;14.63;13.83;;;14.70;99.90;;;;;;5028852;28;20453;-73
2023/05/30 04:05:02;;;;;;;14.17;13.20;;;14.90;99.90;;;;;;5028922;28;20793;-72
2023/05/30 04:07:35;;;;;;;15.87;14.50;;;14.70;99.90;;;;;;5029209;28;20444;-73
2023/05/30 04:10:02;;;;;;;15.17;14.33;;;14.80;99.90;;;;;;5031503;28;20841;-73
2023/05/30 04:12:29;;;;;;;15.47;14.57;;;14.90;99.90;;;;;;5032753;28;20554;-74
2023/05/30 04:14:56;;;;;;;15.87;14.70;;;14.90;99.90;;;;;;5032706;28;20543;-73
2023/05/30 04:17:22;;;;;;;15.07;14.07;;;15.40;99.90;;;;;;5032424;28;20468;-74
2023/05/30 04:19:49;;;;;;;16.73;15.63;;;15.20;99.90;;;;;;5032124;28;20945;-75
2023/05/30 04:22:16;;;;;;;14.80;13.80;;;15.20;99.90;;;;;;5032582;28;20472;-76
2023/05/30 04:24:45;;;;;;;15.37;14.37;;;15.20;99.90;;;;;;5032231;28;20457;-74
2023/05/30 04:27:13;;;;;;;15.33;14.33;;;15.50;99.90;;;;;;5032187;28;20489;-74
2023/05/30 04:29:41;;;;;;;14.43;13.67;;;15.30;99.90;;;;;;5032178;28;20489;-74
2023/05/30 04:32:09;;;;;;;14.73;13.87;;;15.20;99.90;;;;;;5032252;28;20456;-74
2023/05/30 04:34:38;;;;;;;14.00;13.30;;;15.60;99.90;;;;;;5032110;28;20717;-75
2023/05/30 04:37:07;;;;;;;15.30;13.80;;;15.70;99.90;;;;;;5032097;28;20468;-74
2023/05/30 04:39:33;;;;;;;15.73;14.40;;;15.70;99.90;;;;;;5032304;28;20492;-73
2023/05/30 04:42:05;;;;;;;14.97;14.07;;;15.80;99.90;;;;;;5032194;28;20472;-74
2023/05/30 04:44:37;;;;;;;15.67;14.43;;;15.90;99.90;;;;;;5032004;28;20461;-72
2023/05/30 04:47:05;;;;;;;17.23;15.90;;;16.40;99.90;;;;;;5031775;28;20958;-72
2023/05/30 04:49:32;;;;;;;16.27;14.87;;;16.10;99.90;;;;;;5031576;28;20491;-72
2023/05/30 04:51:58;;;;;;;15.77;14.67;;;16.30;99.90;;;;;;5030761;28;20483;-72
2023/05/30 04:54:27;;;;;;;14.47;13.57;;;16.20;99.90;;;;;;5031319;28;20488;-72
2023/05/30 04:56:53;;;;;;;15.50;14.60;;;16.40;99.90;;;;;;5031567;28;20475;-73
2023/05/30 04:59:21;;;;;;;15.33;14.13;;;16.50;99.90;;;;;;5031423;28;20958;-73
2023/05/30 05:01:49;;;;;;;15.20;14.07;;;16.70;99.90;;;;;;5031419;28;20465;-73
2023/05/30 05:04:16;;;;;;;15.93;14.53;;;17.10;99.90;;;;;;5031575;28;20452;-73
2023/05/30 05:06:43;;;;;;;15.30;14.10;;;17.30;99.90;;;;;;5019202;28;20979;-73
2023/05/30 05:09:10;;;;;;;16.73;15.00;;;17.40;99.90;;;;;;5011359;28;20446;-74
2023/05/30 05:11:37;;;;;;;15.37;14.23;;;17.40;99.90;;;;;;5011086;28;20947;-74
2023/05/30 05:14:04;;;;;;;16.03;14.50;;;17.50;99.90;;;;;;5004137;28;20501;-74
2023/05/30 05:16:32;;;;;;;15.30;14.40;;;17.60;99.90;;;;;;4992030;28;20801;-74
2023/05/30 05:18:58;;;;;;;14.87;13.60;;;17.90;99.90;;;;;;4990203;28;20826;-74
2023/05/30 05:21:25;;;;;;;14.30;13.30;;;17.90;99.90;;;;;;4991512;28;20450;-74
2023/05/30 05:23:52;;;;;;;15.07;13.70;;;17.90;99.90;;;;;;4991331;28;20685;-72
2023/05/30 05:26:18;;;;;;;15.30;14.30;;;17.90;99.90;;;;;;4991549;28;20447;-73
2023/05/30 05:28:46;;;;;;;15.53;14.50;;;18.00;99.90;;;;;;4991965;28;20945;-74
2023/05/30 05:31:12;;;;;;;14.97;13.97;;;18.20;99.90;;;;;;4991693;28;20451;-74
2023/05/30 05:33:40;;;;;;;15.80;14.40;;;18.60;99.90;;;;;;4991390;28;20486;-75
2023/05/30 05:36:07;;;;;;;15.40;14.10;;;18.50;99.90;;;;;;4991393;28;20486;-75
2023/05/30 05:38:34;;;;;;;14.63;13.63;;;18.80;99.90;;;;;;4991330;28;20471;-75
2023/05/30 05:41:01;;;;;;;14.03;13.23;;;19.20;99.90;;;;;;4989620;28;20462;-75
2023/05/30 05:43:27;;;;;;;15.33;13.80;;;19.10;99.80;;;;;;4991990;28;20893;-74
2023/05/30 05:45:55;;;;;;;15.43;13.90;;;19.20;99.80;;;;;;4991408;28;20883;-74
2023/05/30 05:48:22;;;;;;;13.90;12.90;;;19.10;99.00;;;;;;4991181;28;20458;-74
2023/05/30 05:50:50;;;;;;;13.73;12.90;;;19.30;98.70;;;;;;4991280;28;20491;-74
2023/05/30 05:53:16;;;;;;;14.53;13.47;;;19.30;98.90;;;;;;4990961;28;20991;-74
2023/05/30 05:55:44;;;;;;;14.00;13.07;;;19.50;99.70;;;;;;4991031;28;20983;-75
2023/05/30 05:58:11;;;;;;;16.13;15.03;;;20.00;99.60;;;;;;4991270;28;20513;-74
2023/05/30 06:00:37;;;;;;;25.93;16.10;;;20.30;99.10;;;;;;4991126;28;20858;-74
2023/05/30 06:03:04;;;;;;;14.30;13.27;;;20.20;98.70;;;;;;4990935;28;20451;-75
2023/05/30 06:05:31;;;;;;;16.13;14.90;;;20.30;97.50;;;;;;4991090;28;20459;-75
2023/05/30 06:07:59;;;;;;;14.93;13.93;;;20.60;97.10;;;;;;4991244;28;20956;-76
2023/05/30 06:10:27;;;;;;;15.90;14.80;;;20.20;96.00;;;;;;4990581;28;20451;-78
2023/05/30 06:12:54;;;;;;;13.97;13.20;;;20.70;96.10;;;;;;4990757;28;20491;-73
2023/05/30 06:15:20;;;;;;;15.30;14.20;;;20.80;96.30;;;;;;4990859;28;20950;-74
2023/05/30 06:17:47;;;;;;;15.80;14.50;;;21.10;95.40;;;;;;4990734;28;20469;-75
2023/05/30 06:20:14;;;;;;;14.53;13.50;;;21.00;95.50;;;;;;4988519;28;20458;-75
2023/05/30 06:22:40;;;;;;;15.07;13.83;;;20.70;95.00;;;;;;4990268;28;20469;-75
2023/05/30 06:25:09;;;;;;;13.67;12.87;;;21.40;95.80;;;;;;4990389;28;20455;-74
2023/05/30 06:27:36;;;;;;;14.60;13.70;;;21.30;95.20;;;;;;4989995;28;20991;-74
2023/05/30 06:30:03;;;;;;;14.40;13.33;;;21.10;94.50;;;;;;4990038;28;20458;-74
2023/05/30 06:32:29;;;;;;;15.13;14.07;;;21.50;94.10;;;;;;4989803;28;20550;-74
2023/05/30 06:34:56;;;;;;;16.50;15.30;;;21.50;93.80;;;;;;4989854;28;20498;-74
2023/05/30 06:37:22;;;;;;;14.77;13.80;;;21.90;93.00;;;;;;4989589;28;20447;-74
2023/05/30 06:39:49;;;;;;;14.80;13.90;;;22.20;92.80;;;;;;4990305;28;20455;-73
2023/05/30 06:42:17;;;;;;;15.67;14.67;;;22.20;92.00;;;;;;4990200;28;20451;-74
2023/05/30 06:44:44;;;;;;;14.33;13.53;;;23.40;93.40;;;;;;4990558;28;20447;-73
2023/05/30 06:47:11;;;;;;;15.33;14.20;;;23.10;91.90;;;;;;4990217;28;20525;-74
2023/05/30 06:49:37;;;;;;;14.00;13.17;;;22.80;90.40;;;;;;4989901;28;21022;-74
2023/05/30 06:52:05;;;;;;;14.77;13.97;;;22.80;91.00;;;;;;4990161;28;20489;-74
2023/05/30 06:54:32;;;;;;;14.90;13.80;;;22.80;90.40;;;;;;4990321;28;20987;-74
2023/05/30 06:57:02;;;;;;;14.37;13.50;;;22.50;91.30;;;;;;4990521;28;20451;-73
2023/05/30 06:59:31;;;;;;;14.60;13.50;;;22.90;89.50;;;;;;4990238;28;20808;-75
2023/05/30 07:01:58;;;;;;;15.00;13.83;;;23.30;90.70;;;;;;4990162;28;20541;-73
2023/05/30 07:04:26;;;;;;;15.20;14.00;;;23.20;90.20;;;;;;4989811;28;20455;-73
2023/05/30 07:06:53;;;;;;;14.17;13.37;;;23.90;88.90;;;;;;4989747;28;20974;-74
2023/05/30 07:09:20;;;;;;;15.23;14.43;;;23.80;87.60;;;;;;4989894;28;20933;-74
2023/05/30 07:11:47;;;;;;;14.37;13.47;;;23.40;86.60;;;;;;4989905;28;20451;-76
2023/05/30 07:14:13;;;;;;;15.37;14.37;;;23.70;88.00;;;;;;4989982;28;20596;-74
2023/05/30 07:16:41;;;;;;;14.10;13.20;;;23.50;87.30;;;;;;4989726;28;20450;-75
2023/05/30 07:19:08;;;;;;;15.07;13.77;;;24.40;87.20;;;;;;4989565;28;20686;-74
2023/05/30 07:21:36;;;;;;;14.47;13.37;;;24.50;85.30;;;;;;4989601;28;20941;-74
2023/05/30 07:24:03;;;;;;;14.37;13.60;;;24.90;85.70;;;;;;4989527;28;20485;-74
2023/05/30 07:26:29;;;;;;;15.40;14.00;;;24.60;86.10;;;;;;4990015;28;20458;-75
2023/05/30 07:28:57;;;;;;;15.20;14.20;;;25.10;85.10;;;;;;4989755;28;20446;-75
2023/05/30 07:31:24;;;;;;;15.03;14.10;;;25.80;85.00;;;;;;4989433;28;21015;-75
2023/05/30 07:33:52;;;;;;;15.77;14.70;;;25.50;82.10;;;;;;4989264;28;20497;-74
2023/05/30 07:36:19;;;;;;;15.50;14.20;;;25.30;82.20;;;;;;4989554;28;20455;-75
2023/05/30 07:38:46;;;;;;;15.00;13.90;;;25.60;82.40;;;;;;4989964;28;20454;-76
2023/05/30 07:41:12;;;;;;;15.17;14.27;;;26.10;80.10;;;;;;4989623;28;20509;-74
2023/05/30 07:43:39;;;;;;;16.03;15.03;;;26.20;78.20;;;;;;4989492;28;20473;-74
2023/05/30 07:46:06;;;;;;;16.73;15.90;;;26.90;77.00;;;;;;4993168;28;20682;-73
2023/05/30 07:48:32;;;;;;;14.80;13.97;;;26.00;74.60;;;;;;4993237;28;20462;-73
2023/05/30 07:51:00;;;;;;;14.90;14.10;;;25.70;74.10;;;;;;4993580;28;20597;-75
2023/05/30 07:53:27;;;;;;;15.97;15.07;;;26.20;75.90;;;;;;4993399;28;20491;-76
2023/05/30 07:55:54;;;;;;;15.80;15.00;;;26.20;73.00;;;;;;4993483;28;20866;-76
2023/05/30 07:58:22;;;;;;;15.77;14.70;;;26.20;77.00;;;;;;4993387;28;20700;-76
2023/05/30 08:00:49;;;;;;;16.57;15.23;;;26.10;75.50;;;;;;4993442;28;20940;-74
2023/05/30 08:03:15;;;;;;;16.17;15.00;;;26.10;73.40;;;;;;4993725;28;20962;-75
2023/05/30 08:05:42;;;;;;;16.23;14.90;;;26.30;69.80;;;;;;4993461;28;20462;-75
2023/05/30 08:08:10;;;;;;;16.17;15.27;;;27.00;71.50;;;;;;4993311;28;20451;-74
2023/05/30 08:10:37;;;;;;;15.03;14.23;;;26.80;70.50;;;;;;4993309;28;20450;-75
2023/05/30 08:13:04;;;;;;;16.63;15.70;;;26.00;69.60;;;;;;4993180;28;20455;-75
2023/05/30 08:15:31;;;;;;;17.00;15.90;;;27.00;67.30;;;;;;4993537;28;20490;-75
2023/05/30 08:18:00;;;;;;;15.83;14.87;;;26.20;65.70;;;;;;4993638;28;20852;-76
2023/05/30 08:20:26;;;;;;;15.77;14.97;;;27.20;66.10;;;;;;4993099;28;20459;-76
2023/05/30 08:22:53;;;;;;;15.87;15.13;;;26.90;67.80;;;;;;4993197;28;20455;-75
2023/05/30 08:25:23;;;;;;;16.53;15.57;;;28.00;68.40;;;;;;4993224;28;20454;-75
2023/05/30 08:27:51;;;;;;;19.10;17.37;;;28.30;66.60;;;;;;4993124;28;20948;-75
2023/05/30 08:30:18;;;;;;;17.27;16.10;;;27.80;62.10;;;;;;4993039;28;20476;-75
2023/05/30 08:32:45;;;;;;;16.77;15.87;;;27.70;60.70;;;;;;4993031;28;20451;-75
2023/05/30 08:35:13;;;;;;;16.60;15.80;;;27.60;60.90;;;;;;4992919;28;20493;-75
2023/05/30 08:37:40;;;;;;;16.33;15.40;;;27.60;59.30;;;;;;5010895;28;20457;-75
2023/05/30 08:40:10;;;;;;;18.00;17.00;;;28.70;58.40;;;;;;5031929;28;20460;-76
2023/05/30 08:42:38;;;;;;;16.13;15.43;;;29.20;58.60;;;;;;5032274;28;20996;-76
2023/05/30 08:45:05;;;;;;;16.00;15.10;;;29.40;57.00;;;;;;5032121;28;20556;-75
2023/05/30 08:47:32;;;;;;;17.40;15.97;;;28.10;59.10;;;;;;5032343;28;20492;-76
2023/05/30 08:50:03;;;;;;;16.73;15.93;;;28.90;59.60;;;;;;5031703;28;20476;-75
2023/05/30 08:52:32;;;;;;;17.30;16.17;;;27.80;58.90;;;;;;5032133;28;20551;-74
2023/05/30 08:55:05;;;;;;;15.77;15.07;;;27.50;59.60;;;;;;5031769;28;20492;-75
2023/05/30 08:57:35;;;;;;;18.40;17.27;;;27.70;59.10;;;;;;5031953;28;20449;-75
2023/05/30 09:00:05;;;;;;;17.23;16.23;;;28.90;57.40;;;;;;5032226;28;20457;-75
2023/05/30 09:02:34;;;;;;;16.93;15.80;;;29.20;56.50;;;;;;5031760;28;20536;-76
2023/05/30 09:05:01;;;;;;;17.40;16.40;;;29.60;55.80;;;;;;5031920;28;20452;-75
2023/05/30 09:07:29;;;;;;;17.63;16.67;;;29.80;54.50;;;;;;5031881;28;20849;-76
2023/05/30 09:09:57;;;;;;;17.47;16.47;;;29.30;54.80;;;;;;5031807;28;20452;-75
2023/05/30 09:12:26;;;;;;;18.03;16.73;;;29.10;55.10;;;;;;5031554;28;20930;-74
2023/05/30 09:14:52;;;;;;;16.60;15.70;;;29.10;55.90;;;;;;5031270;28;20534;-76
2023/05/30 09:17:20;;;;;;;17.03;15.87;;;29.90;55.90;;;;;;5031621;28;20449;-76
2023/05/30 09:19:47;;;;;;;17.00;16.30;;;30.40;53.90;;;;;;5031421;28;20453;-75
2023/05/30 09:22:14;;;;;;;17.77;16.80;;;30.70;53.60;;;;;;5031730;28;20445;-74
2023/05/30 09:25:01;;;;;;;17.97;17.00;;;29.80;53.90;;;;;;5031535;28;20449;-75
2023/05/30 09:27:30;;;;;;;17.40;16.20;;;29.70;54.10;;;;;;5031497;28;20552;-76
2023/05/30 09:29:56;;;;;;;17.47;16.50;;;29.70;54.70;;;;;;5031288;28;20965;-76
2023/05/30 09:32:34;;;;;;;19.10;18.10;;;29.70;54.00;;;;;;5031022;28;20461;-76
2023/05/30 09:35:03;;;;;;;18.10;17.20;;;29.90;53.50;;;;;;5031234;28;20484;-76
2023/05/30 09:37:36;;;;;;;19.20;17.90;;;29.80;53.90;;;;;;5031578;28;20483;-76
2023/05/30 09:40:11;;;;;;;18.17;17.13;;;30.10;53.60;;;;;;5031097;28;20481;-75
2023/05/30 09:42:44;;;;;;;16.70;15.90;;;30.10;53.40;;;;;;5030917;28;20880;-76
2023/05/30 09:45:12;;;;;;;17.40;16.40;;;29.50;53.70;;;;;;5031101;28;20440;-76
2023/05/30 09:47:42;;;;;;;18.57;17.57;;;29.10;54.40;;;;;;5030675;28;20445;-76
2023/05/30 09:50:11;;;;;;;18.00;17.00;;;29.50;54.30;;;;;;5030611;28;20491;-75
2023/05/30 09:52:38;;;;;;;18.43;16.90;;;29.80;52.90;;;;;;5030759;28;20453;-76
2023/05/30 09:55:06;;;;;;;17.47;16.47;;;29.20;53.20;;;;;;5030477;28;20646;-75
2023/05/30 09:57:36;;;;;;;18.10;17.17;;;29.20;53.10;;;;;;5030834;28;20821;-75
2023/05/30 10:00:09;;;;;;;18.17;17.20;;;29.90;52.70;;;;;;5030560;28;20495;-75
2023/05/30 10:02:36;;;;;;;17.60;16.67;;;30.30;52.40;;;;;;5030388;28;20777;-76
2023/05/30 10:05:05;;;;;;;17.20;16.13;;;30.20;51.10;;;;;;5030349;28;20453;-75
2023/05/30 10:07:32;;;;;;;16.47;15.27;;;30.30;51.20;;;;;;5029622;28;20453;-75
2023/05/30 10:09:59;;;;;;;16.87;15.97;;;31.30;50.60;;;;;;5030536;28;20452;-76
2023/05/30 10:12:26;;;;;;;15.93;15.20;;;31.60;49.60;;;;;;5030340;28;20815;-75
2023/05/30 10:14:53;;;;;;;17.03;16.13;;;31.20;49.60;;;;;;5030126;28;20488;-75
2023/05/30 10:17:25;;;;;;;17.67;16.60;;;30.50;50.00;;;;;;5029756;28;20499;-75
2023/05/30 10:19:59;;;;;;;16.77;16.07;;;29.10;51.80;;;;;;5029996;28;20449;-74
2023/05/30 10:22:30;;;;;;;16.93;16.10;;;28.90;53.00;;;;;;5030090;28;20823;-75
2023/05/30 10:24:57;;;;;;;17.10;16.10;;;30.10;52.20;;;;;;5029927;28;20453;-74
2023/05/30 10:27:28;;;;;;;18.07;16.97;;;31.40;50.40;;;;;;5029619;28;20490;-75
2023/05/30 10:30:03;;;;;;;17.83;16.77;;;30.90;50.00;;;;;;5029674;28;20788;-75
2023/05/30 10:32:33;;;;;;;18.23;17.20;;;30.70;50.00;;;;;;5030296;28;20506;-75
2023/05/30 10:35:06;;;;;;;17.83;16.83;;;31.30;48.80;;;;;;5030189;28;20493;-75
2023/05/30 10:37:35;;;;;;;17.27;16.37;;;30.90;49.50;;;;;;5029825;28;20460;-77
2023/05/30 10:40:15;;;;;;;16.10;15.40;;;30.20;49.90;;;;;;5029860;28;20707;-75
2023/05/30 10:42:51;;;;;;;16.83;15.73;;;30.30;50.40;;;;;;5029896;28;20538;-75
2023/05/30 10:45:20;;;;;;;16.70;15.77;;;30.10;50.10;;;;;;5029673;28;20818;-75
2023/05/30 10:47:53;;;;;;;18.63;17.53;;;30.50;50.00;;;;;;5029935;28;20448;-75
2023/05/30 10:50:26;;;;;;;18.00;17.00;;;32.20;48.60;;;;;;5029448;28;20496;-75
2023/05/30 10:52:55;;;;;;;19.03;17.73;;;32.60;47.60;;;;;;5029646;28;20507;-75
2023/05/30 10:55:22;;;;;;;18.60;17.57;;;32.30;47.00;;;;;;5029545;28;20484;-75
2023/05/30 10:57:49;;;;;;;18.43;17.30;;;31.00;48.50;;;;;;5029645;28;20472;-76
2023/05/30 11:00:22;;;;;;;17.40;16.50;;;30.70;49.40;;;;;;5029661;28;20452;-75
2023/05/30 11:02:52;;;;;;;17.20;16.10;;;31.00;48.50;;;;;;5029377;28;20456;-75
2023/05/30 11:05:21;;;;;;;17.30;16.40;;;30.10;48.40;;;;;;5029541;28;20571;-75
2023/05/30 11:07:48;;;;;;;16.83;15.93;;;30.20;49.20;;;;;;5029384;28;20595;-75
2023/05/30 11:10:25;;;;;;;16.80;15.60;;;30.30;49.00;;;;;;5029699;28;20445;-75
2023/05/30 11:12:52;;;;;;;17.00;16.10;;;29.70;49.40;;;;;;5029692;28;20479;-75
2023/05/30 11:15:35;;;;;;;16.60;15.70;;;29.40;49.80;;;;;;5029259;28;20480;-75
2023/05/30 11:18:02;;;;;;;16.53;15.50;;;30.10;50.00;;;;;;5029332;28;20457;-75
2023/05/30 11:20:28;;;;;;;17.33;16.20;;;30.50;48.40;;;;;;5029556;28;20969;-75
2023/05/30 11:23:17;;;;;;;16.63;15.83;;;30.30;48.70;;;;;;5029324;28;20465;-75
2023/05/30 11:25:46;;;;;;;16.87;16.00;;;30.30;49.10;;;;;;5029507;28;20943;-75
2023/05/30 11:28:17;;;;;;;17.03;16.13;;;31.00;48.20;;;;;;5029476;28;20452;-75
2023/05/30 11:30:48;;;;;;;16.80;15.90;;;31.20;48.10;;;;;;5029538;28;20449;-75
2023/05/30 11:33:16;;;;;;;16.70;15.83;;;30.70;47.90;;;;;;5029449;28;20507;-76
2023/05/30 11:35:46;;;;;;;17.63;16.53;;;30.50;48.20;;;;;;5029511;28;20488;-75
2023/05/30 11:38:18;;;;;;;16.77;15.97;;;31.20;47.60;;;;;;5029346;28;20568;-75
2023/05/30 11:40:46;;;;;;;17.50;16.60;;;31.30;47.80;;;;;;5029609;28;20539;-76
2023/05/30 11:43:15;;;;;;;17.10;16.40;;;30.90;47.30;;;;;;5029327;28;21053;-75
2023/05/30 11:45:42;;;;;;;15.80;15.10;;;31.00;46.80;;;;;;5029075;28;20540;-75
2023/05/30 11:48:10;;;;;;;17.90;16.80;;;30.40;47.40;;;;;;5028687;28;20449;-75
2023/05/30 11:50:40;;;;;;;16.27;15.50;;;30.90;47.10;;;;;;5028734;28;20481;-75
2023/05/30 11:53:12;;;;;;;16.70;15.80;;;31.10;47.20;;;;;;5028992;28;20476;-76
2023/05/30 11:55:38;;;;;;;17.20;16.27;;;30.50;46.70;;;;;;5028651;28;21018;-75
2023/05/30 11:58:07;;;;;;;17.40;16.50;;;30.70;47.00;;;;;;5028996;28;20453;-75
2023/05/30 12:00:33;;;;;;;17.60;16.50;;;29.20;48.30;;;;;;5028649;28;20449;-74
2023/05/30 12:03:02;;;;;;;16.90;15.80;;;28.50;50.10;;;;;;5028908;28;20453;-75
2023/05/30 12:05:30;;;;;;;17.70;16.37;;;28.90;50.60;;;;;;5028955;28;20453;-75
2023/05/30 12:07:57;;;;;;;16.03;15.33;;;30.00;49.20;;;;;;5029066;28;20445;-74
2023/05/30 12:10:31;;;;;;;17.37;16.30;;;30.10;48.10;;;;;;5009469;28;20454;-76
2023/05/30 12:12:59;;;;;;;17.70;16.70;;;29.80;47.90;;;;;;5009224;28;20459;-77
2023/05/30 12:15:27;;;;;;;16.23;15.43;;;29.50;48.70;;;;;;5009024;28;20512;-75
2023/05/30 12:17:54;;;;;;;17.07;16.37;;;30.20;48.10;;;;;;5009040;28;20454;-74
2023/05/30 12:20:21;;;;;;;18.17;17.27;;;30.60;47.20;;;;;;5008846;28;20458;-75
2023/05/30 12:22:49;;;;;;;16.63;15.53;;;29.60;47.70;;;;;;5008794;28;20461;-75
2023/05/30 12:25:15;;;;;;;16.20;15.20;;;29.90;48.40;;;;;;5009184;28;20940;-75
2023/05/30 12:27:43;;;;;;;15.53;14.63;;;30.60;46.80;;;;;;5008757;28;20458;-75
2023/05/30 12:30:14;;;;;;;15.67;14.97;;;30.90;46.10;;;;;;5009270;28;20544;-75
2023/05/30 12:32:42;;;;;;;14.43;13.73;;;30.00;47.30;;;;;;5012151;28;20453;-75
2023/05/30 12:35:11;;;;;;;15.63;14.73;;;29.50;48.60;;;;;;5011965;28;20485;-75
2023/05/30 12:37:37;;;;;;;15.50;14.63;;;29.30;48.90;;;;;;5012410;28;20464;-74
2023/05/30 12:40:06;;;;;;;17.07;16.20;;;30.00;48.20;;;;;;5012022;28;20456;-74
2023/05/30 12:42:35;;;;;;;17.50;16.33;;;30.40;47.20;;;;;;5012310;28;20936;-75
2023/05/30 12:45:04;;;;;;;16.73;15.67;;;30.60;45.90;;;;;;5012473;28;20901;-74
2023/05/30 12:47:31;;;;;;;17.20;16.10;;;31.10;46.70;;;;;;5012701;28;20512;-75
2023/05/30 12:50:00;;;;;;;16.60;15.53;;;31.60;45.40;;;;;;5012668;28;20546;-74
2023/05/30 12:52:28;;;;;;;15.87;15.03;;;30.70;46.30;;;;;;5012246;28;20460;-75
2023/05/30 12:54:55;;;;;;;15.80;15.10;;;31.00;45.60;;;;;;5011681;28;20472;-75
2023/05/30 12:57:25;;;;;;;16.27;15.47;;;30.70;46.10;;;;;;5011816;28;20478;-75
2023/05/30 12:59:52;;;;;;;14.40;13.70;;;30.30;46.10;;;;;;5011810;28;20726;-75
2023/05/30 13:02:20;;;;;;;16.10;15.37;;;30.20;46.80;;;;;;5011875;28;20478;-74
2023/05/30 13:04:47;;;;;;;16.20;15.33;;;30.50;46.30;;;;;;5011894;28;20446;-75
2023/05/30 13:07:16;;;;;;;16.27;15.10;;;30.80;45.50;;;;;;5012001;28;20450;-75
2023/05/30 13:09:44;;;;;;;16.13;15.37;;;30.70;45.10;;;;;;5011932;28;20460;-75
2023/05/30 13:12:12;;;;;;;17.20;16.40;;;30.60;46.20;;;;;;5011809;28;20448;-74
2023/05/30 13:14:41;;;;;;;16.27;15.53;;;30.70;45.60;;;;;;5011687;28;20484;-75
2023/05/30 13:17:08;;;;;;;17.23;16.13;;;30.30;46.00;;;;;;5011426;28;20485;-75
2023/05/30 13:19:36;;;;;;;16.77;15.77;;;30.50;46.10;;;;;;5011587;28;20481;-76
2023/05/30 13:22:04;;;;;;;16.43;15.30;;;30.20;46.20;;;;;;5011598;28;20453;-75
2023/05/30 13:24:32;;;;;;;16.10;15.30;;;29.90;46.70;;;;;;5011710;28;20454;-75
2023/05/30 13:27:00;;;;;;;15.50;14.73;;;29.70;46.80;;;;;;5011546;28;20460;-75
2023/05/30 13:29:26;;;;;;;16.50;15.70;;;30.20;46.30;;;;;;5011541;28;20453;-75
2023/05/30 13:31:53;;;;;;;15.27;14.40;;;31.10;45.50;;;;;;5011216;28;20472;-73
2023/05/30 13:34:20;;;;;;;16.07;15.07;;;31.40;44.60;;;;;;5011127;28;20453;-73
2023/05/30 13:36:47;;;;;;;16.50;15.70;;;31.60;44.10;;;;;;5011174;28;20576;-73
2023/05/30 13:39:14;;;;;;;16.87;15.87;;;31.50;44.30;;;;;;5011387;28;20529;-73
2023/05/30 13:41:42;;;;;;;17.10;16.30;;;31.60;43.80;;;;;;5009964;28;20450;-73
2023/05/30 13:44:09;;;;;;;16.60;15.70;;;30.50;44.60;;;;;;5011164;28;20450;-73
2023/05/30 13:46:35;;;;;;;17.23;16.20;;;30.00;45.50;;;;;;5010938;28;20446;-72
2023/05/30 13:49:04;;;;;;;16.00;14.90;;;28.80;46.90;;;;;;5010733;28;20473;-73
2023/05/30 13:51:32;;;;;;;15.53;14.73;;;28.50;47.80;;;;;;5010834;28;20539;-73
2023/05/30 13:53:59;;;;;;;16.30;15.50;;;28.90;47.90;;;;;;5011004;28;20791;-74
2023/05/30 13:56:27;;;;;;;15.77;14.97;;;29.20;47.70;;;;;;5010668;28;20492;-73
2023/05/30 13:58:55;;;;;;;16.00;15.30;;;29.10;46.40;;;;;;5010808;28;20476;-74
2023/05/30 14:01:22;;;;;;;16.53;15.63;;;29.00;48.10;;;;;;5010710;28;20711;-73
2023/05/30 14:03:48;;;;;;;15.07;14.07;;;29.20;48.20;;;;;;5010525;28;20450;-73
2023/05/30 14:06:16;;;;;;;16.43;15.43;;;29.50;47.70;;;;;;5010973;28;20446;-73
2023/05/30 14:08:42;;;;;;;16.80;15.90;;;29.20;47.70;;;;;;5010788;28;20458;-73
2023/05/30 14:11:09;;;;;;;14.93;14.30;;;28.50;48.30;;;;;;5010413;28;20464;-74
2023/05/30 14:13:36;;;;;;;14.97;14.23;;;28.50;48.60;;;;;;5010453;28;20484;-74
2023/05/30 14:16:05;;;;;;;16.13;15.33;;;28.50;47.90;;;;;;5010635;28;20583;-74
2023/05/30 14:18:32;;;;;;;18.13;16.93;;;27.90;48.50;;;;;;5010555;28;20464;-74
2023/05/30 14:20:58;;;;;;;15.77;14.97;;;27.00;50.00;;;;;;5010737;28;20828;-73
2023/05/30 14:23:25;;;;;;;14.90;14.20;;;26.40;51.00;;;;;;5010331;28;20453;-74
2023/05/30 14:25:52;;;;;;;14.80;13.93;;;26.10;52.20;;;;;;5010264;28;20897;-73
2023/05/30 14:28:18;;;;;;;15.00;14.30;;;26.10;52.20;;;;;;5010188;28;20461;-74
2023/05/30 14:30:45;;;;;;;15.70;14.80;;;27.00;51.70;;;;;;5010596;28;20449;-74
2023/05/30 14:33:13;;;;;;;15.03;14.43;;;28.20;51.10;;;;;;5010247;28;20469;-74
2023/05/30 14:35:40;;;;;;;14.93;14.23;;;28.50;48.60;;;;;;5010072;28;20489;-74
2023/05/30 14:38:06;;;;;;;14.03;13.33;;;28.40;49.00;;;;;;5007400;28;20454;-73
2023/05/30 14:40:33;;;;;;;16.10;15.30;;;27.90;49.90;;;;;;5009504;28;20458;-73
2023/05/30 14:43:00;;;;;;;15.27;14.37;;;27.00;50.10;;;;;;5009674;28;20706;-73
2023/05/30 14:45:27;;;;;;;15.13;14.23;;;26.70;50.70;;;;;;5009698;28;20876;-73
2023/05/30 14:47:55;;;;;;;15.40;14.30;;;27.00;51.10;;;;;;5009537;28;20454;-73
2023/05/30 14:50:24;;;;;;;15.90;14.67;;;27.10;50.70;;;;;;5009174;28;20493;-73
2023/05/30 14:52:50;;;;;;;15.43;14.53;;;27.20;50.60;;;;;;5008943;28;21068;-74
2023/05/30 14:55:17;;;;;;;13.77;13.07;;;27.20;50.70;;;;;;5009324;28;20458;-74
2023/05/30 14:57:44;;;;;;;14.80;13.80;;;27.00;50.50;;;;;;5009518;28;20794;-73
2023/05/30 15:00:11;;;;;;;15.03;14.03;;;27.00;50.60;;;;;;5010167;28;20441;-73
2023/05/30 15:02:38;;;;;;;14.20;13.40;;;26.50;50.70;;;;;;5007879;28;20958;-73
2023/05/30 15:05:06;;;;;;;15.57;14.77;;;26.10;51.90;;;;;;5009586;28;20540;-72
2023/05/30 15:07:34;;;;;;;14.40;13.47;;;26.00;52.50;;;;;;5009716;28;20450;-72
2023/05/30 15:10:02;;;;;;;14.23;13.43;;;25.70;52.40;;;;;;5009636;28;20446;-72
2023/05/30 15:12:29;;;;;;;13.40;12.80;;;25.60;52.90;;;;;;5009770;28;20507;-72
2023/05/30 15:14:56;;;;;;;15.27;14.57;;;25.60;52.60;;;;;;5009754;28;20450;-73
2023/05/30 15:17:22;;;;;;;14.13;13.43;;;25.50;53.40;;;;;;5009386;28;20500;-73
2023/05/30 15:19:49;;;;;;;13.90;13.10;;;25.40;53.40;;;;;;5009509;28;20453;-72
2023/05/30 15:22:18;;;;;;;13.50;12.87;;;25.10;53.00;;;;;;5009416;28;20464;-73
2023/05/30 15:24:46;;;;;;;14.17;13.10;;;24.90;53.20;;;;;;5010005;28;20461;-73
2023/05/30 15:27:13;;;;;;;14.60;13.70;;;24.80;54.10;;;;;;5009713;28;20457;-74
2023/05/30 15:29:40;;;;;;;13.27;12.30;;;24.70;54.10;;;;;;5009504;28;20454;-73
2023/05/30 15:32:07;;;;;;;14.80;13.70;;;24.60;54.60;;;;;;5009541;28;20465;-72
2023/05/30 15:34:34;;;;;;;14.37;13.43;;;24.70;54.30;;;;;;5009364;28;20453;-73
2023/05/30 15:37:02;;;;;;;14.57;13.73;;;24.70;54.50;;;;;;5009600;28;20580;-73
2023/05/30 15:39:29;;;;;;;15.10;14.37;;;24.80;54.00;;;;;;5009467;28;20458;-73
2023/05/30 15:41:57;;;;;;;13.37;12.53;;;24.90;53.80;;;;;;5009382;28;20452;-73
2023/05/30 15:44:23;;;;;;;15.10;14.00;;;25.00;53.60;;;;;;5009263;28;20456;-73
2023/05/30 15:46:57;;;;;;;15.50;14.70;;;24.80;53.20;;;;;;5009067;28;20454;-73
2023/05/30 15:49:23;;;;;;;14.10;13.07;;;25.00;53.90;;;;;;5009175;28;20508;-73
2023/05/30 15:51:50;;;;;;;13.93;13.30;;;24.90;53.40;;;;;;5009164;28;20991;-72
2023/05/30 15:54:17;;;;;;;13.53;12.87;;;24.80;53.70;;;;;;5009321;28;20457;-73
2023/05/30 15:56:43;;;;;;;14.87;14.07;;;24.70;53.70;;;;;;5009380;28;20492;-73
2023/05/30 15:59:12;;;;;;;12.20;11.50;;;24.80;53.20;;;;;;5009185;28;20454;-73
2023/05/30 16:01:38;;;;;;;12.70;12.10;;;24.70;53.40;;;;;;5009220;28;20450;-73
2023/05/30 16:04:05;;;;;;;14.23;13.50;;;24.60;53.20;;;;;;5009033;28;20454;-73
2023/05/30 16:06:32;;;;;;;13.90;13.13;;;24.50;53.50;;;;;;5012398;28;20453;-72
2023/05/30 16:08:59;;;;;;;14.73;14.00;;;24.50;53.60;;;;;;5013124;28;20493;-73
2023/05/30 16:11:26;;;;;;;14.37;13.07;;;24.50;53.40;;;;;;5013115;28;20450;-73
2023/05/30 16:13:52;;;;;;;13.87;13.07;;;24.50;53.70;;;;;;5012895;28;20481;-73
2023/05/30 16:16:20;;;;;;;13.67;12.83;;;24.50;53.70;;;;;;5012495;28;20482;-73
2023/05/30 16:18:47;;;;;;;13.80;12.83;;;24.50;53.50;;;;;;5012643;28;20464;-73
2023/05/30 16:21:14;;;;;;;14.87;14.07;;;24.50;53.20;;;;;;5012682;28;20449;-72